Time;durP1;ratioP1;P1;durP2;ratioP2;P2;SDS_P1;SDS_P2;PMS_P1;PMS_P2;Temp;Humidity;BMP_temperature;BMP_pressure;BME280_temperature;BME280_humidity;BME280_pressure;Samples;Min_cycle;Max_cycle;Signal;HPM_P1;HPM_P2
2021/11/09 00:02:16;;;;;;;0.30;0.20;;;;;;;8.38;100.00;101208.56;5025060;28;20844;-51
2021/11/09 00:04:48;;;;;;;0.60;0.60;;;;;;;8.25;100.00;101210.34;5018676;28;20491;-50
2021/11/09 00:09:59;;;;;;;0.30;0.20;;;;;;;8.32;100.00;101206.75;5025397;28;20507;-50
2021/11/09 00:12:31;;;;;;;0.30;0.20;;;;;;;8.22;100.00;101205.03;5025994;28;20447;-51
2021/11/09 00:15:00;;;;;;;0.30;0.20;;;;;;;8.03;100.00;101204.22;5022743;28;20447;-51
2021/11/09 00:17:28;;;;;;;0.30;0.20;;;;;;;7.87;100.00;101206.06;5019152;28;20476;-51
2021/11/09 00:19:55;;;;;;;0.97;0.87;;;;;;;8.05;100.00;101204.22;5022004;28;20476;-51
2021/11/09 00:22:22;;;;;;;0.30;0.20;;;;;;;8.01;100.00;101208.66;5025165;28;20448;-50
2021/11/09 00:24:50;;;;;;;0.30;0.20;;;;;;;7.89;100.00;101203.41;5023188;28;20857;-51
2021/11/09 00:27:17;;;;;;;0.30;0.20;;;;;;;8.03;100.00;101207.75;5018819;28;20999;-50
2021/11/09 00:29:45;;;;;;;0.30;0.20;;;;;;;8.07;100.00;101219.22;5020560;28;20566;-50
2021/11/09 00:32:12;;;;;;;0.30;0.20;;;;;;;8.15;100.00;101205.97;5023167;28;20487;-51
2021/11/09 00:34:39;;;;;;;0.30;0.20;;;;;;;8.15;100.00;101201.53;5020398;28;20922;-51
2021/11/09 00:37:06;;;;;;;0.30;0.20;;;;;;;8.13;100.00;101203.31;5025490;28;20476;-50
2021/11/09 00:39:34;;;;;;;0.30;0.20;;;;;;;8.07;100.00;101198.03;5025036;28;20830;-51
2021/11/09 00:42:01;;;;;;;0.30;0.20;;;;;;;8.24;100.00;101206.81;5018795;28;20876;-51
2021/11/09 00:44:28;;;;;;;0.30;0.20;;;;;;;8.02;100.00;101213.06;5018864;28;20546;-50
2021/11/09 00:46:54;;;;;;;0.30;0.20;;;;;;;7.89;100.00;101214.00;5025613;28;20499;-50
2021/11/09 00:49:22;;;;;;;0.30;0.20;;;;;;;7.95;100.00;101209.56;5025542;28;20887;-51
2021/11/09 00:51:50;;;;;;;0.30;0.20;;;;;;;8.33;100.00;101208.53;5006770;28;20869;-50
2021/11/09 00:54:18;;;;;;;0.30;0.20;;;;;;;8.14;100.00;101206.84;5017596;28;20451;-49
2021/11/09 00:56:46;;;;;;;0.30;0.20;;;;;;;8.13;100.00;101210.38;5024324;28;20463;-51
2021/11/09 00:59:13;;;;;;;0.30;0.20;;;;;;;8.15;100.00;101212.13;5025430;28;20483;-51
2021/11/09 01:01:40;;;;;;;0.67;0.67;;;;;;;8.11;100.00;101210.41;5019849;28;20452;-52
2021/11/09 01:04:08;;;;;;;0.30;0.20;;;;;;;8.14;100.00;101222.75;5018500;28;20470;-52
2021/11/09 01:06:35;;;;;;;0.30;0.20;;;;;;;8.12;100.00;101216.56;5009368;28;20945;-51
2021/11/09 01:09:04;;;;;;;0.30;0.20;;;;;;;8.12;100.00;101214.81;5025378;28;20479;-51
2021/11/09 01:11:31;;;;;;;0.30;0.20;;;;;;;8.10;100.00;101221.88;5020615;28;20452;-52
2021/11/09 01:13:58;;;;;;;0.30;0.20;;;;;;;7.93;100.00;101219.25;5018799;28;20507;-51
2021/11/09 01:16:25;;;;;;;0.30;0.30;;;;;;;7.83;100.00;101216.66;5023512;28;20498;-51
2021/11/09 01:18:55;;;;;;;0.30;0.20;;;;;;;8.01;100.00;101214.84;5025230;28;20473;-52
2021/11/09 01:21:22;;;;;;;0.30;0.20;;;;;;;8.07;100.00;101219.22;5021754;28;20447;-52
2021/11/09 01:23:52;;;;;;;0.30;0.20;;;;;;;8.02;100.00;101223.66;5018205;28;20476;-51
2021/11/09 01:26:18;;;;;;;0.30;0.20;;;;;;;8.01;100.00;101219.25;5031872;28;20499;-52
2021/11/09 01:28:48;;;;;;;0.50;0.50;;;;;;;8.09;100.00;101213.94;5018347;28;20475;-52
2021/11/09 01:31:15;;;;;;;0.30;0.20;;;;;;;8.11;100.00;101217.47;5015732;28;20461;-52
2021/11/09 01:33:42;;;;;;;0.30;0.20;;;;;;;8.08;100.00;101222.75;5016768;28;20447;-52
2021/11/09 01:36:09;;;;;;;0.30;0.20;;;;;;;8.09;100.00;101212.19;5022670;28;20988;-52
2021/11/09 01:38:37;;;;;;;0.30;0.20;;;;;;;8.03;100.00;101220.13;5028387;28;20534;-51
2021/11/09 01:41:05;;;;;;;0.30;0.20;;;;;;;8.06;100.00;101219.22;5027149;28;20491;-50
2021/11/09 01:43:32;;;;;;;0.30;0.20;;;;;;;8.08;100.00;101220.09;5021737;28;20452;-50
2021/11/09 01:45:59;;;;;;;0.30;0.20;;;;;;;8.06;100.00;101211.28;5022963;28;20531;-49
2021/11/09 01:48:26;;;;;;;0.40;0.37;;;;;;;8.10;100.00;101215.69;5028273;28;20473;-49
2021/11/09 01:50:58;;;;;;;0.30;0.20;;;;;;;7.99;100.00;101216.63;5027845;28;20455;-50
2021/11/09 01:53:26;;;;;;;0.30;0.30;;;;;;;7.98;100.00;101213.97;5009341;28;20447;-50
2021/11/09 01:55:53;;;;;;;0.30;0.20;;;;;;;7.99;100.00;101213.97;5021745;28;20860;-50
2021/11/09 01:58:20;;;;;;;0.30;0.20;;;;;;;8.09;100.00;101209.53;5027641;28;20476;-50
2021/11/09 02:00:56;;;;;;;0.30;0.20;;;;;;;7.98;100.00;101214.84;5028280;28;20968;-49
2021/11/09 02:03:25;;;;;;;0.30;0.20;;;;;;;7.86;100.00;101214.00;5023444;28;20898;-50
2021/11/09 02:05:53;;;;;;;0.30;0.20;;;;;;;7.97;100.00;101223.69;5021721;28;20903;-50
2021/11/09 02:08:21;;;;;;;0.30;0.20;;;;;;;7.95;100.00;101219.28;5025306;28;20522;-50
2021/11/09 02:10:48;;;;;;;0.30;0.30;;;;;;;8.01;100.00;101214.84;5028282;28;20459;-50
2021/11/09 02:13:15;;;;;;;0.30;0.20;;;;;;;7.84;100.00;101216.66;5024655;28;20470;-50
2021/11/09 02:15:42;;;;;;;0.30;0.20;;;;;;;7.94;100.00;101217.50;5021341;28;20443;-50
2021/11/09 02:18:12;;;;;;;0.30;0.20;;;;;;;7.97;100.00;101214.84;5024052;28;20473;-50
2021/11/09 02:20:39;;;;;;;0.30;0.20;;;;;;;8.01;100.00;101212.19;5027906;28;20449;-50
2021/11/09 02:23:07;;;;;;;0.30;0.20;;;;;;;7.98;100.00;101212.19;5025673;28;20506;-49
2021/11/09 02:25:34;;;;;;;0.30;0.20;;;;;;;7.93;100.00;101213.97;5016927;28;20484;-50
2021/11/09 02:28:02;;;;;;;0.30;0.20;;;;;;;7.87;100.00;101215.75;5025192;28;20533;-51
2021/11/09 02:30:31;;;;;;;1.63;0.87;;;;;;;7.90;100.00;101210.44;5020851;28;20543;-50
2021/11/09 02:32:59;;;;;;;0.30;0.20;;;;;;;7.97;100.00;101213.09;5026357;28;20514;-50
2021/11/09 02:35:26;;;;;;;0.30;0.20;;;;;;;7.97;100.00;101209.56;5021060;28;20443;-50
2021/11/09 02:37:55;;;;;;;0.30;0.20;;;;;;;7.95;100.00;101212.22;5022744;28;20500;-50
2021/11/09 02:40:24;;;;;;;0.30;0.20;;;;;;;7.86;100.00;101216.66;5027400;28;20811;-50
2021/11/09 02:42:55;;;;;;;0.30;0.20;;;;;;;7.82;100.00;101213.13;5025394;28;20454;-50
2021/11/09 02:45:41;;;;;;;0.30;0.20;;;;;;;7.83;100.00;101221.97;5019984;28;20483;-50
2021/11/09 02:48:13;;;;;;;0.30;0.20;;;;;;;7.43;100.00;101228.19;5020562;28;20476;-49
2021/11/09 02:50:45;;;;;;;0.30;0.20;;;;;;;7.59;100.00;101218.47;5024298;28;20930;-50
2021/11/09 02:53:28;;;;;;;0.30;0.20;;;;;;;7.63;100.00;101225.50;5027344;28;20452;-50
2021/11/09 03:08:59;;;;;;;0.30;0.20;;;;;;;7.56;100.00;101218.47;5021127;28;20468;-50
2021/11/09 03:11:26;;;;;;;0.30;0.20;;;;;;;7.53;100.00;101210.50;5020811;28;20444;-50
2021/11/09 03:13:54;;;;;;;0.30;0.20;;;;;;;7.25;100.00;101212.31;5019986;28;20880;-51
2021/11/09 03:16:21;;;;;;;0.30;0.20;;;;;;;7.28;100.00;101214.97;5025978;28;20472;-50
2021/11/09 03:18:53;;;;;;;0.30;0.20;;;;;;;7.27;100.00;101207.91;5026785;28;20482;-50
2021/11/09 03:45:26;;;;;;;0.30;0.20;;;;;;;6.04;100.00;101242.84;5006491;28;20530;-50
2021/11/09 03:47:56;;;;;;;0.30;0.20;;;;;;;5.87;100.00;101247.09;5019775;28;20464;-50
2021/11/09 03:50:26;;;;;;;0.30;0.20;;;;;;;5.97;100.00;101241.03;5025137;28;20504;-50
2021/11/09 03:53:29;;;;;;;0.30;0.20;;;;;;;5.81;100.00;101250.56;5026629;28;20440;-50
2021/11/09 04:00:52;;;;;;;0.67;0.67;;;;;;;5.54;100.00;101261.81;5020068;28;20824;-50
2021/11/09 04:06:35;;;;;;;0.30;0.20;;;;;;;5.27;100.00;101272.13;5019063;28;20484;-50
2021/11/09 04:14:17;;;;;;;0.30;0.20;;;;;;;5.24;100.00;101280.91;5025770;28;20456;-50
2021/11/09 04:16:58;;;;;;;0.30;0.20;;;;;;;5.00;100.00;101276.28;5022410;28;20549;-49
2021/11/09 04:47:11;;;;;;;0.30;0.20;;;;;;;4.23;100.00;101293.78;5010439;28;20549;-50
2021/11/09 05:02:42;;;;;;;0.30;0.20;;;;;;;3.96;100.00;101291.66;5019427;28;20449;-51
2021/11/09 05:10:38;;;;;;;0.30;0.20;;;;;;;3.66;100.00;101303.47;5029329;28;20453;-51
2021/11/09 05:13:05;;;;;;;0.30;0.20;;;;;;;3.77;100.00;101309.81;5023869;28;20923;-51
2021/11/09 05:15:31;;;;;;;0.30;0.20;;;;;;;3.93;100.00;101313.53;5022435;28;20479;-51
2021/11/09 05:17:58;;;;;;;0.30;0.20;;;;;;;3.99;100.00;101316.28;5027745;28;20468;-51
2021/11/09 05:20:26;;;;;;;0.30;0.20;;;;;;;3.87;100.00;101326.63;5029093;28;21026;-51
2021/11/09 05:22:53;;;;;;;0.30;0.10;;;;;;;3.86;100.00;101317.84;5023759;28;20451;-50
2021/11/09 05:25:20;;;;;;;0.30;0.20;;;;;;;3.76;100.00;101312.41;5020389;28;20538;-51
2021/11/09 05:27:51;;;;;;;0.40;0.30;;;;;;;3.67;100.00;101317.50;5025259;28;20525;-51
2021/11/09 05:30:18;;;;;;;0.30;0.20;;;;;;;3.80;100.00;101317.72;5022018;28;20448;-51
2021/11/09 05:32:45;;;;;;;0.30;0.20;;;;;;;3.69;100.00;101321.94;5027672;28;20707;-51
2021/11/09 05:35:12;;;;;;;0.30;0.17;;;;;;;3.68;100.00;101324.53;5021916;28;20444;-51
2021/11/09 05:37:50;;;;;;;0.30;0.20;;;;;;;3.75;100.00;101323.78;5025084;28;20527;-51
2021/11/09 05:40:19;;;;;;;0.30;0.20;;;;;;;3.71;100.00;101325.50;5028742;28;20878;-51
2021/11/09 05:42:45;;;;;;;0.30;0.20;;;;;;;3.54;100.00;101327.81;5027263;28;20455;-51
2021/11/09 05:45:17;;;;;;;0.30;0.20;;;;;;;3.62;100.00;101321.81;5021570;28;20518;-51
2021/11/09 05:47:44;;;;;;;0.30;0.20;;;;;;;3.55;100.00;101329.59;5022564;28;20468;-51
2021/11/09 05:50:11;;;;;;;0.30;0.20;;;;;;;3.38;100.00;101335.44;5028150;28;20444;-51
2021/11/09 05:52:38;;;;;;;0.30;0.20;;;;;;;3.46;100.00;101342.59;5027772;28;20451;-51
2021/11/09 05:55:05;;;;;;;0.30;0.20;;;;;;;3.35;100.00;101341.53;5021721;28;20525;-51
2021/11/09 05:57:31;;;;;;;0.30;0.20;;;;;;;3.30;100.00;101340.56;5021818;28;21040;-51
2021/11/09 05:59:58;;;;;;;0.30;0.20;;;;;;;3.29;100.00;101344.06;5028316;28;20511;-51
2021/11/09 06:02:25;;;;;;;0.30;0.20;;;;;;;3.33;100.00;101345.88;5027947;28;20474;-50
2021/11/09 06:04:54;;;;;;;0.30;0.20;;;;;;;3.49;100.00;101347.91;5018499;28;20532;-51
2021/11/09 06:07:21;;;;;;;1.90;0.80;;;;;;;3.49;100.00;101347.00;5008464;28;20559;-51
2021/11/09 06:09:47;;;;;;;0.73;0.70;;;;;;;3.60;100.00;101344.56;5027638;28;20453;-51
2021/11/09 06:12:14;;;;;;;0.27;0.17;;;;;;;3.55;100.00;101342.72;5028025;28;21008;-51
2021/11/09 06:14:41;;;;;;;0.30;0.10;;;;;;;3.47;100.00;101360.13;5021783;28;20455;-51
2021/11/09 06:17:08;;;;;;;0.30;0.20;;;;;;;3.50;100.00;101359.28;5021010;28;20826;-51
2021/11/09 06:19:34;;;;;;;0.30;0.20;;;;;;;3.62;100.00;101362.13;5025826;28;20448;-51
2021/11/09 06:22:02;;;;;;;0.30;0.20;;;;;;;3.46;100.00;101357.47;5027958;28;20456;-51
2021/11/09 06:24:32;;;;;;;0.60;0.60;;;;;;;3.49;100.00;101360.16;5022605;28;21040;-51
2021/11/09 06:26:59;;;;;;;0.30;0.20;;;;;;;3.35;100.00;101357.28;5020684;28;20515;-50
2021/11/09 06:29:26;;;;;;;0.30;0.10;;;;;;;3.31;100.00;101370.34;5025019;28;20503;-51
2021/11/09 06:31:53;;;;;;;0.30;0.20;;;;;;;3.12;100.00;101374.34;5021923;28;20488;-51
2021/11/09 06:34:19;;;;;;;0.30;0.10;;;;;;;3.15;100.00;101370.06;5025234;28;20448;-51
2021/11/09 06:36:46;;;;;;;0.20;0.20;;;;;;;3.11;100.00;101376.09;5027348;28;20448;-51
2021/11/09 06:39:13;;;;;;;0.30;0.10;;;;;;;3.14;100.00;101384.03;5022413;28;20498;-50
2021/11/09 06:41:41;;;;;;;0.30;0.20;;;;;;;3.04;100.00;101382.09;5020771;28;20455;-50
2021/11/09 06:44:07;;;;;;;0.30;0.20;;;;;;;3.04;100.00;101378.59;5024208;28;20540;-50
2021/11/09 06:46:34;;;;;;;0.30;0.20;;;;;;;3.15;100.00;101383.19;5027260;28;20493;-50
2021/11/09 06:49:00;;;;;;;0.20;0.20;;;;;;;3.26;100.00;101378.13;5023679;28;20471;-51
2021/11/09 06:51:27;;;;;;;0.30;0.20;;;;;;;3.35;100.00;101382.69;5020176;28;20983;-50
2021/11/09 06:53:54;;;;;;;0.30;0.13;;;;;;;3.31;100.00;101386.13;5024124;28;20449;-50
2021/11/09 06:56:20;;;;;;;0.20;0.10;;;;;;;3.45;100.00;101387.25;5025708;28;20448;-50
2021/11/09 06:58:47;;;;;;;0.30;0.20;;;;;;;3.52;100.00;101390.00;5024126;28;20487;-50
2021/11/09 07:01:14;;;;;;;0.30;0.20;;;;;;;3.50;100.00;101391.72;5020087;28;20451;-50
2021/11/09 07:03:40;;;;;;;0.30;0.30;;;;;;;3.48;100.00;101392.56;5023506;28;20601;-51
2021/11/09 07:06:08;;;;;;;0.30;0.10;;;;;;;3.40;100.00;101405.53;5011185;28;20491;-50
2021/11/09 07:08:35;;;;;;;0.30;0.20;;;;;;;3.38;100.00;101402.00;5024464;28;20482;-51
2021/11/09 07:11:03;;;;;;;0.77;0.77;;;;;;;3.44;100.00;101401.25;5020170;28;20452;-51
2021/11/09 07:13:30;;;;;;;0.20;0.17;;;;;;;3.52;100.00;101404.88;5022112;28;20857;-50
2021/11/09 07:15:57;;;;;;;0.30;0.20;;;;;;;3.65;100.00;101411.25;5026745;28;20452;-51
2021/11/09 07:18:24;;;;;;;0.20;0.20;;;;;;;3.77;100.00;101419.34;5025320;28;20903;-51
2021/11/09 07:20:51;;;;;;;0.43;0.37;;;;;;;3.89;100.00;101414.31;5020157;28;20484;-51
2021/11/09 07:23:17;;;;;;;0.30;0.30;;;;;;;3.98;100.00;101414.47;5020978;28;20452;-51
2021/11/09 07:25:45;;;;;;;0.30;0.20;;;;;;;4.05;100.00;101418.94;5032018;28;20562;-51
2021/11/09 07:28:12;;;;;;;0.30;0.20;;;;;;;4.08;100.00;101429.50;5020944;28;20978;-50
2021/11/09 07:30:42;;;;;;;0.20;0.20;;;;;;;3.81;100.00;101432.56;5025889;28;20961;-51
2021/11/09 07:33:12;;;;;;;0.20;0.20;;;;;;;3.89;100.00;101437.09;5019127;28;20448;-51
2021/11/09 07:35:39;;;;;;;0.30;0.20;;;;;;;3.96;100.00;101437.19;5019828;28;20444;-50
2021/11/09 07:38:06;;;;;;;0.27;0.20;;;;;;;3.86;100.00;101446.69;5020681;28;20504;-51
2021/11/09 07:40:33;;;;;;;0.30;0.20;;;;;;;4.03;100.00;101454.88;5026539;28;21016;-51
2021/11/09 07:43:00;;;;;;;0.20;0.20;;;;;;;4.07;100.00;101451.41;5026153;28;20451;-50
2021/11/09 07:45:27;;;;;;;0.20;0.20;;;;;;;4.25;100.00;101442.03;5020037;28;20474;-51
2021/11/09 07:47:58;;;;;;;0.20;0.20;;;;;;;4.45;100.00;101446.78;5019446;28;20889;-51
2021/11/09 07:50:26;;;;;;;0.20;0.20;;;;;;;4.59;100.00;101451.34;5025410;28;20460;-51
2021/11/09 07:52:57;;;;;;;0.20;0.20;;;;;;;4.49;100.00;101454.72;5026240;28;20525;-51
2021/11/09 07:55:28;;;;;;;0.30;0.30;;;;;;;4.64;100.00;101452.28;5021791;28;20444;-50
2021/11/09 07:58:01;;;;;;;0.30;0.20;;;;;;;4.86;100.00;101451.75;5019261;28;21087;-51
2021/11/09 08:00:39;;;;;;;0.30;0.10;;;;;;;4.96;100.00;101456.28;5022573;28;20487;-52
2021/11/09 08:03:11;;;;;;;0.20;0.20;;;;;;;5.04;100.00;101461.63;5026282;28;20452;-52
2021/11/09 08:06:05;;;;;;;0.27;0.20;;;;;;;5.17;100.00;101457.41;5017744;28;20480;-51
2021/11/09 08:08:38;;;;;;;0.30;0.20;;;;;;;5.30;100.00;101460.19;5022618;28;20467;-51
2021/11/09 08:11:07;;;;;;;1.40;1.07;;;;;;;5.30;100.00;101454.03;5019539;28;20451;-52
2021/11/09 08:13:35;;;;;;;0.27;0.20;;;;;;;5.42;100.00;101453.31;5021826;28;20452;-51
2021/11/09 08:16:01;;;;;;;0.30;0.20;;;;;;;5.39;100.00;101448.88;5025982;28;20504;-51
2021/11/09 08:18:28;;;;;;;2.23;2.10;;;;;;;5.33;100.00;101451.44;5023793;28;20506;-51
2021/11/09 08:20:59;;;;;;;0.30;0.20;;;;;;;5.50;100.00;101457.81;5019148;28;20451;-52
2021/11/09 08:23:26;;;;;;;0.80;0.80;;;;;;;5.55;100.00;101448.19;5020767;28;20445;-52
2021/11/09 08:25:53;;;;;;;0.30;0.20;;;;;;;5.64;100.00;101460.59;5024536;28;20784;-51
2021/11/09 08:28:20;;;;;;;0.47;0.47;;;;;;;5.77;100.00;101458.97;5025899;28;20468;-51
2021/11/09 08:30:50;;;;;;;0.30;0.20;;;;;;;5.90;100.00;101466.16;5005294;28;20452;-52
2021/11/09 08:33:18;;;;;;;0.30;0.30;;;;;;;5.89;100.00;101462.59;5026077;28;20933;-51
2021/11/09 08:35:45;;;;;;;0.30;0.20;;;;;;;6.11;100.00;101461.06;5020746;28;20458;-51
2021/11/09 08:38:12;;;;;;;0.30;0.20;;;;;;;6.07;100.00;101461.03;5018691;28;20989;-51
2021/11/09 08:40:41;;;;;;;0.30;0.20;;;;;;;6.02;100.00;101463.59;5023945;28;20449;-52
2021/11/09 08:43:07;;;;;;;0.30;0.20;;;;;;;6.04;100.00;101458.38;5027896;28;20443;-51
2021/11/09 08:45:48;;;;;;;0.30;0.20;;;;;;;6.09;100.00;101448.72;5025257;28;20856;-51
2021/11/09 08:48:17;;;;;;;0.30;0.20;;;;;;;6.17;100.00;101445.28;5023238;28;20494;-52
2021/11/09 08:50:43;;;;;;;0.30;0.20;;;;;;;6.15;100.00;101461.94;5025139;28;21059;-51
2021/11/09 08:53:17;;;;;;;0.30;0.20;;;;;;;6.13;100.00;101458.41;5029636;28;20453;-51
2021/11/09 08:56:12;;;;;;;0.30;0.20;;;;;;;6.24;100.00;101455.00;5028193;28;20445;-50
2021/11/09 09:06:17;;;;;;;1.30;1.23;;;;;;;6.54;100.00;101462.25;5022301;28;20499;-51
2021/11/09 09:08:44;;;;;;;0.30;0.20;;;;;;;6.22;100.00;101459.41;5023681;28;20468;-51
2021/11/09 09:11:11;;;;;;;0.30;0.20;;;;;;;6.30;100.00;101469.13;5029296;28;20518;-51
2021/11/09 09:13:37;;;;;;;0.63;0.63;;;;;;;6.45;100.00;101463.97;5027555;28;20949;-52
2021/11/09 09:16:04;;;;;;;0.30;0.20;;;;;;;6.51;100.00;101459.59;5022397;28;20447;-51
2021/11/09 09:18:32;;;;;;;0.30;0.20;;;;;;;6.70;100.00;101465.88;5022984;28;20476;-51
2021/11/09 09:21:08;;;;;;;0.30;0.20;;;;;;;6.86;100.00;101463.34;5022722;28;20509;-51
2021/11/09 09:23:41;;;;;;;0.30;0.20;;;;;;;6.90;100.00;101454.56;5022465;28;20471;-52
2021/11/09 09:56:05;;;;;;;0.40;0.30;;;;;;;7.33;100.00;101450.34;5021801;28;20520;-51
2021/11/09 09:58:32;;;;;;;0.30;0.20;;;;;;;7.87;100.00;101454.88;5026619;28;20491;-49
2021/11/09 10:00:59;;;;;;;0.30;0.30;;;;;;;7.49;100.00;101457.44;5028473;28;20456;-49
2021/11/09 10:03:35;;;;;;;0.30;0.20;;;;;;;7.57;100.00;101452.16;5023815;28;20447;-49
2021/11/09 10:06:02;;;;;;;0.30;0.20;;;;;;;7.71;100.00;101453.09;5021277;28;20447;-50
2021/11/09 10:08:40;;;;;;;0.30;0.20;;;;;;;7.92;100.00;101455.75;5024186;28;20469;-49
2021/11/09 10:11:26;;;;;;;0.73;0.73;;;;;;;7.89;100.00;101452.22;5028417;28;20444;-50
2021/11/09 10:13:52;;;;;;;0.30;0.20;;;;;;;8.16;100.00;101449.59;5028211;28;20867;-48
2021/11/09 10:16:19;;;;;;;0.37;0.37;;;;;;;8.29;100.00;101447.81;5023149;28;20447;-50
2021/11/09 10:18:46;;;;;;;0.30;0.20;;;;;;;8.09;100.00;101455.78;5021277;28;20518;-49
2021/11/09 10:21:12;;;;;;;0.30;0.20;;;;;;;8.27;100.00;101452.25;5026311;28;20503;-50
2021/11/09 10:23:41;;;;;;;0.30;0.20;;;;;;;7.89;100.00;101458.41;5028261;28;20447;-49
2021/11/09 10:26:16;;;;;;;0.30;0.20;;;;;;;8.03;100.00;101450.47;5023437;28;20478;-48
2021/11/09 10:28:45;;;;;;;0.30;0.20;;;;;;;8.25;100.00;101454.91;5021041;28;20525;-50
2021/11/09 10:31:15;;;;;;;0.30;0.20;;;;;;;8.01;100.00;101462.81;5019329;28;20493;-49
2021/11/09 10:33:49;;;;;;;0.30;0.20;;;;;;;7.89;100.00;101460.16;5016273;28;20543;-49
2021/11/09 10:36:26;;;;;;;0.80;0.80;;;;;;;7.86;100.00;101454.88;5020621;28;20518;-49
2021/11/09 10:39:14;;;;;;;1.00;0.87;;;;;;;8.25;100.00;101457.53;5021107;28;20483;-49
2021/11/09 10:41:41;;;;;;;0.30;0.20;;;;;;;8.24;100.00;101446.94;5020981;28;20861;-49
2021/11/09 10:44:09;;;;;;;11.00;1.53;;;;;;;8.19;100.00;101454.00;5024435;28;20491;-49
2021/11/09 10:46:36;;;;;;;0.30;0.20;;;;;;;8.30;100.00;101457.53;5027552;28;20488;-50
2021/11/09 10:49:03;;;;;;;0.30;0.20;;;;;;;8.53;100.00;101452.25;5022540;28;20537;-51
2021/11/09 10:51:51;;;;;;;0.30;0.20;;;;;;;9.10;100.00;101452.97;5007741;28;20952;-49
2021/11/09 10:54:48;;;;;;;0.30;0.20;;;;;;;9.00;100.00;101449.47;5027536;28;20854;-49
2021/11/09 10:57:24;;;;;;;0.30;0.20;;;;;;;9.04;100.00;101448.56;5023214;28;20445;-49
2021/11/09 11:00:14;;;;;;;0.30;0.20;;;;;;;8.95;100.00;101447.75;5027567;28;20476;-49
2021/11/09 11:05:26;;;;;;;1.13;1.03;;;;;;;9.08;100.00;101447.69;5024717;28;20925;-49
2021/11/09 11:08:00;;;;;;;1.13;0.80;;;;;;;9.18;100.00;101437.91;5020247;28;20516;-49
2021/11/09 11:10:32;;;;;;;0.30;0.20;;;;;;;9.41;100.00;101432.50;5020884;28;20452;-50
2021/11/09 11:13:20;;;;;;;0.30;0.20;;;;;;;9.37;100.00;101442.25;5020968;28;20447;-49
2021/11/09 11:16:10;;;;;;;0.30;0.20;;;;;;;9.46;100.00;101436.91;5020631;28;20444;-50
2021/11/09 11:18:40;;;;;;;0.30;0.20;;;;;;;9.27;100.00;101437.88;5020380;28;20460;-50
2021/11/09 11:21:09;;;;;;;0.30;0.20;;;;;;;9.28;100.00;101436.97;5006759;28;20502;-49
2021/11/09 11:23:38;;;;;;;0.30;0.20;;;;;;;9.12;100.00;101432.63;5027012;28;20451;-49
2021/11/09 11:26:08;;;;;;;0.97;0.97;;;;;;;9.56;100.00;101427.09;5013621;28;20926;-49
2021/11/09 11:28:38;;;;;;;0.30;0.20;;;;;;;9.83;100.00;101426.03;5026588;28;20545;-49
2021/11/09 11:31:06;;;;;;;1.67;1.60;;;;;;;9.56;100.00;101421.78;5018839;28;20899;-49
2021/11/09 11:33:35;;;;;;;0.30;0.30;;;;;;;9.80;100.00;101413.66;5026463;28;20455;-49
2021/11/09 11:36:02;;;;;;;0.30;0.20;;;;;;;10.03;100.00;101407.31;5023991;28;20594;-49
2021/11/09 11:38:30;;;;;;;0.60;0.60;;;;;;;9.73;100.00;101405.72;5019573;28;20475;-49
2021/11/09 11:40:59;;;;;;;0.40;0.40;;;;;;;9.78;100.00;101402.19;5022641;28;20453;-49
2021/11/09 11:43:47;;;;;;;0.30;0.20;;;;;;;9.80;100.00;101396.84;5026556;28;20452;-49
2021/11/09 11:46:17;;;;;;;0.30;0.20;;;;;;;9.86;100.00;101398.56;5026587;28;20494;-49
2021/11/09 11:49:10;;;;;;;0.30;0.20;;;;;;;10.07;100.00;101387.78;5020830;28;20500;-49
2021/11/09 11:51:59;;;;;;;0.30;0.20;;;;;;;10.14;100.00;101377.97;5024501;28;20449;-49
2021/11/09 11:55:06;;;;;;;1.57;1.57;;;;;;;10.20;100.00;101372.59;5026386;28;20498;-49
2021/11/09 11:57:49;;;;;;;0.30;0.30;;;;;;;10.71;100.00;101375.66;5022175;28;20533;-49
2021/11/09 12:00:58;;;;;;;0.30;0.20;;;;;;;10.76;100.00;101371.16;5002937;28;20506;-49
2021/11/09 12:03:25;;;;;;;0.30;0.30;;;;;;;10.82;100.00;101365.75;5021150;28;20459;-50
2021/11/09 12:05:53;;;;;;;0.30;0.20;;;;;;;10.71;100.00;101355.25;5019490;28;20510;-49
2021/11/09 12:08:43;;;;;;;0.40;0.33;;;;;;;10.62;100.00;101350.03;5023790;28;20562;-49
2021/11/09 12:11:22;;;;;;;0.53;0.53;;;;;;;10.96;100.00;101347.81;5026324;28;20495;-49
2021/11/09 12:13:52;;;;;;;0.60;0.60;;;;;;;10.88;100.00;101339.09;5025812;28;20452;-49
2021/11/09 12:16:49;;;;;;;0.30;0.20;;;;;;;10.77;100.00;101335.69;5020286;28;20448;-49
2021/11/09 12:19:45;;;;;;;0.30;0.20;;;;;;;10.89;100.00;101328.41;5015124;28;20830;-49
2021/11/09 12:22:21;;;;;;;0.30;0.20;;;;;;;11.00;100.00;101330.06;5020517;28;20457;-48
2021/11/09 12:24:58;;;;;;;0.30;0.20;;;;;;;11.09;100.00;101317.50;5023735;28;20506;-49
2021/11/09 12:27:51;;;;;;;0.67;0.67;;;;;;;10.98;91.65;101323.00;5018693;28;20486;-48
2021/11/09 12:30:34;;;;;;;0.30;0.20;;;;;;;11.23;87.38;101311.97;5018866;28;20957;-49
2021/11/09 12:33:10;;;;;;;0.30;0.20;;;;;;;11.07;85.78;101310.44;5024321;28;20571;-49
2021/11/09 12:35:50;;;;;;;0.30;0.20;;;;;;;11.09;86.99;101309.50;5008035;28;20586;-49
2021/11/09 12:38:18;;;;;;;0.30;0.30;;;;;;;11.07;87.22;101311.31;5018824;28;20981;-49
2021/11/09 12:40:48;;;;;;;0.30;0.20;;;;;;;11.14;86.16;101307.69;5023528;28;20456;-49
2021/11/09 12:43:43;;;;;;;0.30;0.20;;;;;;;11.08;85.29;101298.88;5025706;28;20503;-49
2021/11/09 12:46:31;;;;;;;0.30;0.20;;;;;;;11.30;84.99;101287.03;5023688;28;20459;-49
2021/11/09 12:49:02;;;;;;;0.30;0.20;;;;;;;11.23;85.53;101286.22;5022616;28;20558;-49
2021/11/09 12:51:35;;;;;;;0.40;0.30;;;;;;;11.28;85.48;101288.84;5022345;28;21303;-49
2021/11/09 12:54:19;;;;;;;0.30;0.20;;;;;;;11.18;85.25;101280.13;5023514;28;20614;-48
2021/11/09 12:56:48;;;;;;;0.30;0.20;;;;;;;11.32;85.48;101277.25;5025702;28;20456;-49
2021/11/09 13:02:15;;;;;;;0.60;0.57;;;;;;;11.42;84.62;101276.19;5023091;28;20447;-49
2021/11/09 13:09:59;;;;;;;0.30;0.20;;;;;;;11.48;84.14;101268.09;5009233;28;20426;-49
2021/11/09 13:12:30;;;;;;;0.30;0.20;;;;;;;11.38;83.22;101265.63;5019122;28;20929;-49
2021/11/09 13:15:07;;;;;;;0.30;0.20;;;;;;;11.55;84.02;101259.13;5023205;28;20444;-50
2021/11/09 13:17:42;;;;;;;0.30;0.20;;;;;;;11.64;84.05;101260.72;5024482;28;20461;-49
2021/11/09 13:22:57;;;;;;;0.30;0.20;;;;;;;11.65;80.51;101266.94;5008251;28;20785;-49
2021/11/09 13:25:58;;;;;;;0.30;0.20;;;;;;;11.52;79.25;101266.28;5017214;28;20484;-49
2021/11/09 13:28:26;;;;;;;0.30;0.20;;;;;;;11.62;78.06;101264.31;4983699;28;20914;-49
2021/11/09 13:30:58;;;;;;;0.30;0.20;;;;;;;11.71;78.51;101258.84;5008369;28;20452;-49
2021/11/09 13:33:28;;;;;;;0.30;0.20;;;;;;;11.82;79.16;101267.56;5029450;28;20586;-49
2021/11/09 13:35:56;;;;;;;0.30;0.20;;;;;;;11.66;79.28;101258.94;5024011;28;20452;-48
2021/11/09 13:38:24;;;;;;;0.30;0.20;;;;;;;11.64;77.25;101265.16;5021996;28;20523;-49
2021/11/09 13:41:02;;;;;;;0.30;0.20;;;;;;;11.68;77.64;101270.44;5026091;28;21023;-49
2021/11/09 13:43:34;;;;;;;0.40;0.23;;;;;;;11.56;77.83;101263.53;5028359;28;20452;-48
2021/11/09 13:46:05;;;;;;;0.30;0.20;;;;;;;11.54;76.20;101267.13;5027184;28;20934;-49
2021/11/09 13:48:34;;;;;;;0.30;0.20;;;;;;;11.45;77.27;101267.28;5021974;28;20492;-49
2021/11/09 13:51:04;;;;;;;0.30;0.20;;;;;;;11.48;76.41;101265.44;5015182;28;20518;-49
2021/11/09 13:53:41;;;;;;;0.30;0.20;;;;;;;11.58;78.23;101261.72;5022126;28;20498;-49
2021/11/09 13:56:18;;;;;;;0.30;0.20;;;;;;;11.49;78.05;101263.66;5021802;28;20448;-49
2021/11/09 13:59:05;;;;;;;0.30;0.20;;;;;;;11.31;77.18;101254.19;5025564;28;20492;-49
2021/11/09 14:10:55;;;;;;;0.30;0.20;;;;;;;11.32;76.63;101255.94;5026308;28;20523;-49
2021/11/09 14:18:19;;;;;;;0.30;0.20;;;;;;;11.28;76.33;101263.09;5025652;28;20906;-50
2021/11/09 14:20:58;;;;;;;0.30;0.20;;;;;;;11.27;76.70;101257.81;5006683;28;20452;-48
2021/11/09 14:23:36;;;;;;;0.30;0.20;;;;;;;11.23;76.29;101258.75;5027121;28;20474;-48
2021/11/09 14:26:17;;;;;;;0.30;0.20;;;;;;;11.20;77.79;101256.13;5026811;28;20453;-48
2021/11/09 14:28:44;;;;;;;0.30;0.20;;;;;;;11.24;78.55;101256.09;5028101;28;20467;-48